sensor_id;sensor_type;location;lat;lon;timestamp;P1;durP1;ratioP1;P2;durP2;ratioP2
46971;SDS011;32722;43.486;2.766;2022-10-31T00:01:31;18.42;;;7.13;;
46971;SDS011;32722;43.486;2.766;2022-10-31T00:03:58;18.23;;;8.13;;
46971;SDS011;32722;43.486;2.766;2022-10-31T00:06:24;24.80;;;8.32;;
46971;SDS011;32722;43.486;2.766;2022-10-31T00:08:57;19.40;;;8.02;;
46971;SDS011;32722;43.486;2.766;2022-10-31T00:11:23;26.63;;;7.80;;
46971;SDS011;32722;43.486;2.766;2022-10-31T00:13:49;16.48;;;7.78;;
46971;SDS011;32722;43.486;2.766;2022-10-31T00:16:17;20.02;;;7.93;;
46971;SDS011;32722;43.486;2.766;2022-10-31T00:18:43;26.83;;;8.27;;
46971;SDS011;32722;43.486;2.766;2022-10-31T00:21:09;17.45;;;7.80;;
46971;SDS011;32722;43.486;2.766;2022-10-31T00:23:35;23.85;;;8.13;;
46971;SDS011;32722;43.486;2.766;2022-10-31T00:26:02;19.98;;;8.13;;
46971;SDS011;32722;43.486;2.766;2022-10-31T00:28:29;22.08;;;8.45;;
46971;SDS011;32722;43.486;2.766;2022-10-31T00:30:59;26.98;;;8.63;;
46971;SDS011;32722;43.486;2.766;2022-10-31T00:33:25;25.98;;;9.05;;
46971;SDS011;32722;43.486;2.766;2022-10-31T00:35:51;16.38;;;8.13;;
46971;SDS011;32722;43.486;2.766;2022-10-31T00:38:17;26.85;;;8.23;;
46971;SDS011;32722;43.486;2.766;2022-10-31T00:40:44;22.77;;;8.45;;
46971;SDS011;32722;43.486;2.766;2022-10-31T00:43:10;20.52;;;7.75;;
46971;SDS011;32722;43.486;2.766;2022-10-31T00:45:36;21.55;;;8.32;;
46971;SDS011;32722;43.486;2.766;2022-10-31T00:48:02;14.95;;;7.30;;
46971;SDS011;32722;43.486;2.766;2022-10-31T00:50:28;19.77;;;8.35;;
46971;SDS011;32722;43.486;2.766;2022-10-31T00:52:54;22.48;;;8.32;;
46971;SDS011;32722;43.486;2.766;2022-10-31T00:55:21;24.83;;;8.32;;
46971;SDS011;32722;43.486;2.766;2022-10-31T00:57:47;22.05;;;7.80;;
46971;SDS011;32722;43.486;2.766;2022-10-31T01:00:14;20.67;;;8.30;;
46971;SDS011;32722;43.486;2.766;2022-10-31T01:02:40;19.10;;;8.00;;
46971;SDS011;32722;43.486;2.766;2022-10-31T01:05:06;28.65;;;9.07;;
46971;SDS011;32722;43.486;2.766;2022-10-31T01:07:35;24.75;;;8.00;;
46971;SDS011;32722;43.486;2.766;2022-10-31T01:10:01;28.10;;;8.73;;
46971;SDS011;32722;43.486;2.766;2022-10-31T01:12:28;22.10;;;8.85;;
46971;SDS011;32722;43.486;2.766;2022-10-31T01:14:54;23.42;;;8.02;;
46971;SDS011;32722;43.486;2.766;2022-10-31T01:17:20;24.02;;;9.20;;
46971;SDS011;32722;43.486;2.766;2022-10-31T01:19:46;24.42;;;8.77;;
46971;SDS011;32722;43.486;2.766;2022-10-31T01:22:12;25.73;;;8.27;;
46971;SDS011;32722;43.486;2.766;2022-10-31T01:24:38;22.35;;;7.75;;
46971;SDS011;32722;43.486;2.766;2022-10-31T01:27:04;18.73;;;7.13;;
46971;SDS011;32722;43.486;2.766;2022-10-31T01:29:30;20.17;;;7.55;;
46971;SDS011;32722;43.486;2.766;2022-10-31T01:31:57;20.45;;;7.88;;
46971;SDS011;32722;43.486;2.766;2022-10-31T01:34:23;20.55;;;7.22;;
46971;SDS011;32722;43.486;2.766;2022-10-31T01:36:49;30.13;;;7.95;;
46971;SDS011;32722;43.486;2.766;2022-10-31T01:39:17;20.58;;;7.18;;
46971;SDS011;32722;43.486;2.766;2022-10-31T01:41:45;21.92;;;7.38;;
46971;SDS011;32722;43.486;2.766;2022-10-31T01:52:03;22.52;;;7.45;;
46971;SDS011;32722;43.486;2.766;2022-10-31T01:54:32;18.98;;;7.25;;
46971;SDS011;32722;43.486;2.766;2022-10-31T01:57:00;22.60;;;8.65;;
46971;SDS011;32722;43.486;2.766;2022-10-31T01:59:28;23.00;;;7.40;;
46971;SDS011;32722;43.486;2.766;2022-10-31T02:01:55;19.38;;;7.13;;
46971;SDS011;32722;43.486;2.766;2022-10-31T02:04:21;22.42;;;8.13;;
46971;SDS011;32722;43.486;2.766;2022-10-31T02:06:58;19.73;;;7.78;;
46971;SDS011;32722;43.486;2.766;2022-10-31T02:09:25;20.20;;;7.30;;
46971;SDS011;32722;43.486;2.766;2022-10-31T02:11:52;22.35;;;7.68;;
46971;SDS011;32722;43.486;2.766;2022-10-31T02:14:20;23.42;;;7.30;;
46971;SDS011;32722;43.486;2.766;2022-10-31T02:16:47;21.00;;;7.60;;
46971;SDS011;32722;43.486;2.766;2022-10-31T02:19:14;24.25;;;8.20;;
46971;SDS011;32722;43.486;2.766;2022-10-31T02:22:26;17.52;;;8.20;;
46971;SDS011;32722;43.486;2.766;2022-10-31T02:26:59;22.45;;;7.47;;
46971;SDS011;32722;43.486;2.766;2022-10-31T02:34:59;20.10;;;8.13;;
46971;SDS011;32722;43.486;2.766;2022-10-31T02:37:39;20.10;;;7.20;;
46971;SDS011;32722;43.486;2.766;2022-10-31T02:45:31;18.10;;;7.50;;
46971;SDS011;32722;43.486;2.766;2022-10-31T02:48:00;25.05;;;7.88;;
46971;SDS011;32722;43.486;2.766;2022-10-31T02:50:30;27.15;;;8.45;;
46971;SDS011;32722;43.486;2.766;2022-10-31T02:52:56;22.85;;;8.00;;
46971;SDS011;32722;43.486;2.766;2022-10-31T02:57:49;26.50;;;7.65;;
46971;SDS011;32722;43.486;2.766;2022-10-31T03:00:15;16.40;;;6.63;;
46971;SDS011;32722;43.486;2.766;2022-10-31T03:08:04;31.45;;;8.23;;
46971;SDS011;32722;43.486;2.766;2022-10-31T03:13:04;15.93;;;6.88;;
46971;SDS011;32722;43.486;2.766;2022-10-31T03:15:33;17.08;;;6.80;;
46971;SDS011;32722;43.486;2.766;2022-10-31T03:20:45;17.10;;;6.75;;
46971;SDS011;32722;43.486;2.766;2022-10-31T03:23:14;20.02;;;7.30;;
46971;SDS011;32722;43.486;2.766;2022-10-31T03:25:41;20.63;;;7.25;;
46971;SDS011;32722;43.486;2.766;2022-10-31T03:28:08;29.10;;;7.43;;
46971;SDS011;32722;43.486;2.766;2022-10-31T03:30:35;23.25;;;8.10;;
46971;SDS011;32722;43.486;2.766;2022-10-31T03:33:04;15.20;;;7.85;;
46971;SDS011;32722;43.486;2.766;2022-10-31T03:35:34;24.15;;;8.05;;
46971;SDS011;32722;43.486;2.766;2022-10-31T03:38:01;24.70;;;8.50;;
46971;SDS011;32722;43.486;2.766;2022-10-31T03:40:28;27.65;;;8.20;;
46971;SDS011;32722;43.486;2.766;2022-10-31T03:42:57;21.05;;;7.75;;
46971;SDS011;32722;43.486;2.766;2022-10-31T03:45:26;21.85;;;7.78;;
46971;SDS011;32722;43.486;2.766;2022-10-31T03:47:54;17.70;;;6.93;;
46971;SDS011;32722;43.486;2.766;2022-10-31T03:50:20;21.42;;;7.28;;
46971;SDS011;32722;43.486;2.766;2022-10-31T03:53:04;20.25;;;7.35;;
46971;SDS011;32722;43.486;2.766;2022-10-31T03:55:34;25.58;;;8.38;;
46971;SDS011;32722;43.486;2.766;2022-10-31T03:58:06;25.25;;;7.75;;
46971;SDS011;32722;43.486;2.766;2022-10-31T04:00:34;21.25;;;8.23;;
46971;SDS011;32722;43.486;2.766;2022-10-31T04:03:05;18.85;;;7.70;;
46971;SDS011;32722;43.486;2.766;2022-10-31T04:05:32;24.13;;;7.60;;
46971;SDS011;32722;43.486;2.766;2022-10-31T04:07:59;26.10;;;7.28;;
46971;SDS011;32722;43.486;2.766;2022-10-31T04:10:26;17.85;;;6.60;;
46971;SDS011;32722;43.486;2.766;2022-10-31T04:12:58;27.35;;;8.50;;
46971;SDS011;32722;43.486;2.766;2022-10-31T04:15:26;22.17;;;8.02;;
46971;SDS011;32722;43.486;2.766;2022-10-31T04:17:53;23.35;;;7.50;;
46971;SDS011;32722;43.486;2.766;2022-10-31T04:20:31;17.60;;;7.45;;
46971;SDS011;32722;43.486;2.766;2022-10-31T04:22:58;17.38;;;7.32;;
46971;SDS011;32722;43.486;2.766;2022-10-31T04:25:24;24.40;;;8.00;;
46971;SDS011;32722;43.486;2.766;2022-10-31T04:27:51;18.23;;;8.30;;
46971;SDS011;32722;43.486;2.766;2022-10-31T04:30:17;17.80;;;6.93;;
46971;SDS011;32722;43.486;2.766;2022-10-31T04:32:43;20.92;;;7.50;;
46971;SDS011;32722;43.486;2.766;2022-10-31T04:35:09;24.13;;;7.80;;
46971;SDS011;32722;43.486;2.766;2022-10-31T04:37:35;17.48;;;7.80;;
46971;SDS011;32722;43.486;2.766;2022-10-31T04:40:02;21.48;;;8.40;;
46971;SDS011;32722;43.486;2.766;2022-10-31T04:42:31;22.23;;;7.70;;
46971;SDS011;32722;43.486;2.766;2022-10-31T04:44:57;17.60;;;7.40;;
46971;SDS011;32722;43.486;2.766;2022-10-31T04:47:23;21.23;;;7.70;;
46971;SDS011;32722;43.486;2.766;2022-10-31T04:49:49;19.58;;;7.70;;
46971;SDS011;32722;43.486;2.766;2022-10-31T04:52:15;22.92;;;7.60;;
46971;SDS011;32722;43.486;2.766;2022-10-31T04:54:41;19.42;;;7.15;;
46971;SDS011;32722;43.486;2.766;2022-10-31T04:57:08;17.13;;;7.30;;
46971;SDS011;32722;43.486;2.766;2022-10-31T04:59:34;24.13;;;8.25;;
46971;SDS011;32722;43.486;2.766;2022-10-31T05:02:00;20.73;;;7.15;;
46971;SDS011;32722;43.486;2.766;2022-10-31T05:04:26;23.92;;;7.25;;
46971;SDS011;32722;43.486;2.766;2022-10-31T05:06:52;23.40;;;7.88;;
46971;SDS011;32722;43.486;2.766;2022-10-31T05:09:18;23.25;;;7.72;;
46971;SDS011;32722;43.486;2.766;2022-10-31T05:11:44;24.10;;;7.50;;
46971;SDS011;32722;43.486;2.766;2022-10-31T05:14:10;21.92;;;8.07;;
46971;SDS011;32722;43.486;2.766;2022-10-31T05:16:36;18.95;;;8.13;;
46971;SDS011;32722;43.486;2.766;2022-10-31T05:19:02;21.02;;;6.93;;
46971;SDS011;32722;43.486;2.766;2022-10-31T05:21:29;16.02;;;7.40;;
46971;SDS011;32722;43.486;2.766;2022-10-31T05:23:55;21.50;;;8.13;;
46971;SDS011;32722;43.486;2.766;2022-10-31T05:26:21;20.23;;;7.53;;
46971;SDS011;32722;43.486;2.766;2022-10-31T05:28:47;26.08;;;8.10;;
46971;SDS011;32722;43.486;2.766;2022-10-31T05:31:13;22.55;;;8.32;;
46971;SDS011;32722;43.486;2.766;2022-10-31T05:33:39;19.80;;;7.68;;
46971;SDS011;32722;43.486;2.766;2022-10-31T05:36:05;20.60;;;7.68;;
46971;SDS011;32722;43.486;2.766;2022-10-31T05:38:32;25.45;;;7.63;;
46971;SDS011;32722;43.486;2.766;2022-10-31T05:40:58;24.55;;;8.48;;
46971;SDS011;32722;43.486;2.766;2022-10-31T05:43:27;20.02;;;7.88;;
46971;SDS011;32722;43.486;2.766;2022-10-31T05:45:54;16.58;;;7.00;;
46971;SDS011;32722;43.486;2.766;2022-10-31T05:48:20;22.95;;;7.95;;
46971;SDS011;32722;43.486;2.766;2022-10-31T05:50:47;20.05;;;7.50;;
46971;SDS011;32722;43.486;2.766;2022-10-31T05:53:13;17.58;;;7.72;;
46971;SDS011;32722;43.486;2.766;2022-10-31T05:55:40;18.98;;;8.02;;
46971;SDS011;32722;43.486;2.766;2022-10-31T05:58:06;19.88;;;7.75;;
46971;SDS011;32722;43.486;2.766;2022-10-31T06:00:32;15.80;;;7.38;;
46971;SDS011;32722;43.486;2.766;2022-10-31T06:03:03;21.77;;;8.02;;
46971;SDS011;32722;43.486;2.766;2022-10-31T06:05:30;22.80;;;7.93;;
46971;SDS011;32722;43.486;2.766;2022-10-31T06:07:56;22.10;;;7.95;;
46971;SDS011;32722;43.486;2.766;2022-10-31T06:10:22;24.83;;;8.13;;
46971;SDS011;32722;43.486;2.766;2022-10-31T06:12:48;24.20;;;9.45;;
46971;SDS011;32722;43.486;2.766;2022-10-31T06:15:15;27.88;;;8.50;;
46971;SDS011;32722;43.486;2.766;2022-10-31T06:17:41;20.23;;;7.60;;
46971;SDS011;32722;43.486;2.766;2022-10-31T06:20:07;26.35;;;8.02;;
46971;SDS011;32722;43.486;2.766;2022-10-31T06:22:34;23.00;;;7.88;;
46971;SDS011;32722;43.486;2.766;2022-10-31T06:25:00;19.23;;;7.43;;
46971;SDS011;32722;43.486;2.766;2022-10-31T06:27:26;25.90;;;7.78;;
46971;SDS011;32722;43.486;2.766;2022-10-31T06:29:52;21.67;;;7.43;;
46971;SDS011;32722;43.486;2.766;2022-10-31T06:32:19;23.63;;;7.93;;
46971;SDS011;32722;43.486;2.766;2022-10-31T06:34:45;20.50;;;7.72;;
46971;SDS011;32722;43.486;2.766;2022-10-31T06:37:14;23.67;;;8.20;;
46971;SDS011;32722;43.486;2.766;2022-10-31T06:39:40;22.35;;;7.75;;
46971;SDS011;32722;43.486;2.766;2022-10-31T06:42:06;18.27;;;7.93;;
46971;SDS011;32722;43.486;2.766;2022-10-31T06:44:32;21.77;;;7.00;;
46971;SDS011;32722;43.486;2.766;2022-10-31T06:46:59;24.20;;;7.57;;
46971;SDS011;32722;43.486;2.766;2022-10-31T06:49:25;22.20;;;7.53;;
46971;SDS011;32722;43.486;2.766;2022-10-31T06:51:51;24.40;;;8.43;;
46971;SDS011;32722;43.486;2.766;2022-10-31T06:54:17;20.50;;;8.35;;
46971;SDS011;32722;43.486;2.766;2022-10-31T06:56:45;21.75;;;8.35;;
46971;SDS011;32722;43.486;2.766;2022-10-31T06:59:12;19.40;;;8.45;;
46971;SDS011;32722;43.486;2.766;2022-10-31T07:01:38;29.92;;;8.63;;
46971;SDS011;32722;43.486;2.766;2022-10-31T07:04:04;26.90;;;8.80;;
46971;SDS011;32722;43.486;2.766;2022-10-31T07:06:30;19.00;;;7.63;;
46971;SDS011;32722;43.486;2.766;2022-10-31T07:08:56;20.48;;;8.10;;
46971;SDS011;32722;43.486;2.766;2022-10-31T07:11:22;23.67;;;8.55;;
46971;SDS011;32722;43.486;2.766;2022-10-31T07:13:48;26.17;;;7.82;;
46971;SDS011;32722;43.486;2.766;2022-10-31T07:16:14;22.13;;;7.97;;
46971;SDS011;32722;43.486;2.766;2022-10-31T07:18:41;17.83;;;7.13;;
46971;SDS011;32722;43.486;2.766;2022-10-31T07:21:07;18.63;;;7.07;;
46971;SDS011;32722;43.486;2.766;2022-10-31T07:23:33;21.00;;;8.40;;
46971;SDS011;32722;43.486;2.766;2022-10-31T07:25:59;21.05;;;7.55;;
46971;SDS011;32722;43.486;2.766;2022-10-31T07:28:25;41.33;;;19.77;;
46971;SDS011;32722;43.486;2.766;2022-10-31T07:30:52;48.95;;;23.23;;
46971;SDS011;32722;43.486;2.766;2022-10-31T07:33:19;33.90;;;15.38;;
46971;SDS011;32722;43.486;2.766;2022-10-31T07:35:45;34.40;;;15.27;;
46971;SDS011;32722;43.486;2.766;2022-10-31T07:38:12;30.17;;;12.05;;
46971;SDS011;32722;43.486;2.766;2022-10-31T07:40:38;26.50;;;10.88;;
46971;SDS011;32722;43.486;2.766;2022-10-31T07:43:05;20.13;;;10.40;;
46971;SDS011;32722;43.486;2.766;2022-10-31T07:45:31;20.00;;;7.50;;
46971;SDS011;32722;43.486;2.766;2022-10-31T07:47:57;23.58;;;8.57;;
46971;SDS011;32722;43.486;2.766;2022-10-31T07:50:24;22.15;;;9.63;;
46971;SDS011;32722;43.486;2.766;2022-10-31T07:53:00;27.60;;;9.07;;
46971;SDS011;32722;43.486;2.766;2022-10-31T07:55:27;26.10;;;9.20;;
46971;SDS011;32722;43.486;2.766;2022-10-31T07:58:00;19.38;;;7.30;;
46971;SDS011;32722;43.486;2.766;2022-10-31T08:00:27;26.30;;;9.00;;
46971;SDS011;32722;43.486;2.766;2022-10-31T08:02:59;21.60;;;8.05;;
46971;SDS011;32722;43.486;2.766;2022-10-31T08:05:26;24.52;;;7.53;;
46971;SDS011;32722;43.486;2.766;2022-10-31T08:07:52;20.67;;;7.78;;
46971;SDS011;32722;43.486;2.766;2022-10-31T08:10:18;21.23;;;9.02;;
46971;SDS011;32722;43.486;2.766;2022-10-31T08:12:44;18.42;;;7.25;;
46971;SDS011;32722;43.486;2.766;2022-10-31T08:15:11;24.60;;;8.18;;
46971;SDS011;32722;43.486;2.766;2022-10-31T08:17:37;24.83;;;9.38;;
46971;SDS011;32722;43.486;2.766;2022-10-31T08:20:04;23.17;;;8.32;;
46971;SDS011;32722;43.486;2.766;2022-10-31T08:22:31;28.95;;;10.70;;
46971;SDS011;32722;43.486;2.766;2022-10-31T08:24:57;32.20;;;12.75;;
46971;SDS011;32722;43.486;2.766;2022-10-31T08:27:23;40.15;;;18.35;;
46971;SDS011;32722;43.486;2.766;2022-10-31T08:29:49;49.45;;;29.08;;
46971;SDS011;32722;43.486;2.766;2022-10-31T08:32:15;49.47;;;29.75;;
46971;SDS011;32722;43.486;2.766;2022-10-31T08:34:41;35.88;;;12.65;;
46971;SDS011;32722;43.486;2.766;2022-10-31T08:37:08;23.40;;;8.15;;
46971;SDS011;32722;43.486;2.766;2022-10-31T08:39:34;25.20;;;8.52;;
46971;SDS011;32722;43.486;2.766;2022-10-31T08:42:00;25.58;;;9.73;;
46971;SDS011;32722;43.486;2.766;2022-10-31T08:44:26;21.15;;;8.45;;
46971;SDS011;32722;43.486;2.766;2022-10-31T08:46:52;32.85;;;12.32;;
46971;SDS011;32722;43.486;2.766;2022-10-31T08:49:18;23.30;;;10.55;;
46971;SDS011;32722;43.486;2.766;2022-10-31T08:51:47;27.25;;;12.07;;
46971;SDS011;32722;43.486;2.766;2022-10-31T08:54:13;29.48;;;14.73;;
46971;SDS011;32722;43.486;2.766;2022-10-31T08:56:39;24.98;;;10.45;;
46971;SDS011;32722;43.486;2.766;2022-10-31T08:59:05;31.75;;;12.07;;
46971;SDS011;32722;43.486;2.766;2022-10-31T09:01:31;18.58;;;8.63;;
46971;SDS011;32722;43.486;2.766;2022-10-31T09:03:58;24.27;;;9.45;;
46971;SDS011;32722;43.486;2.766;2022-10-31T09:06:24;23.50;;;7.43;;
46971;SDS011;32722;43.486;2.766;2022-10-31T09:08:50;22.30;;;8.73;;
46971;SDS011;32722;43.486;2.766;2022-10-31T09:11:16;22.33;;;8.48;;
46971;SDS011;32722;43.486;2.766;2022-10-31T09:13:42;22.75;;;8.25;;
46971;SDS011;32722;43.486;2.766;2022-10-31T09:16:08;26.42;;;8.02;;
46971;SDS011;32722;43.486;2.766;2022-10-31T09:18:35;24.92;;;8.48;;
46971;SDS011;32722;43.486;2.766;2022-10-31T09:21:01;24.33;;;8.25;;
46971;SDS011;32722;43.486;2.766;2022-10-31T09:23:27;23.88;;;10.23;;
46971;SDS011;32722;43.486;2.766;2022-10-31T09:25:53;26.15;;;9.18;;
46971;SDS011;32722;43.486;2.766;2022-10-31T09:28:21;30.60;;;11.35;;
46971;SDS011;32722;43.486;2.766;2022-10-31T09:30:48;34.05;;;14.02;;
46971;SDS011;32722;43.486;2.766;2022-10-31T09:33:15;28.25;;;12.90;;
46971;SDS011;32722;43.486;2.766;2022-10-31T09:35:41;38.88;;;17.88;;
46971;SDS011;32722;43.486;2.766;2022-10-31T09:38:09;39.00;;;19.25;;
46971;SDS011;32722;43.486;2.766;2022-10-31T09:50:38;17.23;;;7.40;;
46971;SDS011;32722;43.486;2.766;2022-10-31T09:53:16;19.50;;;8.65;;
46971;SDS011;32722;43.486;2.766;2022-10-31T09:55:44;27.77;;;8.20;;
46971;SDS011;32722;43.486;2.766;2022-10-31T09:58:19;20.63;;;7.90;;
46971;SDS011;32722;43.486;2.766;2022-10-31T10:00:47;20.13;;;8.55;;
46971;SDS011;32722;43.486;2.766;2022-10-31T10:05:46;18.45;;;7.53;;
46971;SDS011;32722;43.486;2.766;2022-10-31T10:08:19;22.77;;;7.50;;
46971;SDS011;32722;43.486;2.766;2022-10-31T10:10:50;29.52;;;8.93;;
46971;SDS011;32722;43.486;2.766;2022-10-31T10:18:55;25.88;;;8.07;;
46971;SDS011;32722;43.486;2.766;2022-10-31T10:26:28;22.08;;;7.72;;
46971;SDS011;32722;43.486;2.766;2022-10-31T10:29:00;19.58;;;7.68;;
46971;SDS011;32722;43.486;2.766;2022-10-31T10:31:28;25.95;;;7.22;;
46971;SDS011;32722;43.486;2.766;2022-10-31T10:39:12;23.38;;;6.72;;
46971;SDS011;32722;43.486;2.766;2022-10-31T10:41:40;19.88;;;6.93;;
46971;SDS011;32722;43.486;2.766;2022-10-31T10:44:08;16.73;;;6.72;;
46971;SDS011;32722;43.486;2.766;2022-10-31T10:46:42;22.02;;;7.93;;
46971;SDS011;32722;43.486;2.766;2022-10-31T10:51:59;23.80;;;7.72;;
46971;SDS011;32722;43.486;2.766;2022-10-31T10:57:11;20.25;;;9.82;;
46971;SDS011;32722;43.486;2.766;2022-10-31T10:59:39;23.20;;;8.00;;
46971;SDS011;32722;43.486;2.766;2022-10-31T11:02:16;23.48;;;7.85;;
46971;SDS011;32722;43.486;2.766;2022-10-31T11:04:42;20.73;;;7.57;;
46971;SDS011;32722;43.486;2.766;2022-10-31T11:07:10;23.25;;;6.78;;
46971;SDS011;32722;43.486;2.766;2022-10-31T11:09:37;17.40;;;7.03;;
46971;SDS011;32722;43.486;2.766;2022-10-31T11:12:10;23.52;;;6.45;;
46971;SDS011;32722;43.486;2.766;2022-10-31T11:14:46;26.63;;;7.55;;
46971;SDS011;32722;43.486;2.766;2022-10-31T11:17:25;22.17;;;7.20;;
46971;SDS011;32722;43.486;2.766;2022-10-31T11:20:37;22.05;;;7.18;;
46971;SDS011;32722;43.486;2.766;2022-10-31T11:22:41;20.17;;;6.97;;
46971;SDS011;32722;43.486;2.766;2022-10-31T11:25:24;18.50;;;7.47;;
46971;SDS011;32722;43.486;2.766;2022-10-31T11:28:00;21.52;;;7.18;;
46971;SDS011;32722;43.486;2.766;2022-10-31T11:30:27;23.02;;;8.20;;
46971;SDS011;32722;43.486;2.766;2022-10-31T11:32:53;19.75;;;7.63;;
46971;SDS011;32722;43.486;2.766;2022-10-31T11:35:20;25.23;;;8.00;;
46971;SDS011;32722;43.486;2.766;2022-10-31T11:37:47;21.20;;;7.38;;
46971;SDS011;32722;43.486;2.766;2022-10-31T11:40:15;22.92;;;8.38;;
46971;SDS011;32722;43.486;2.766;2022-10-31T11:42:42;22.77;;;7.80;;
46971;SDS011;32722;43.486;2.766;2022-10-31T11:47:54;19.40;;;7.88;;
46971;SDS011;32722;43.486;2.766;2022-10-31T11:50:25;30.60;;;13.85;;
46971;SDS011;32722;43.486;2.766;2022-10-31T11:52:52;24.05;;;8.43;;
46971;SDS011;32722;43.486;2.766;2022-10-31T11:55:38;21.70;;;9.00;;
46971;SDS011;32722;43.486;2.766;2022-10-31T11:58:18;29.70;;;8.48;;
46971;SDS011;32722;43.486;2.766;2022-10-31T12:00:48;19.73;;;6.90;;
46971;SDS011;32722;43.486;2.766;2022-10-31T12:08:45;23.67;;;8.00;;
46971;SDS011;32722;43.486;2.766;2022-10-31T12:16:17;25.17;;;7.53;;
46971;SDS011;32722;43.486;2.766;2022-10-31T12:29:30;27.88;;;8.85;;
46971;SDS011;32722;43.486;2.766;2022-10-31T12:32:03;19.80;;;6.97;;
46971;SDS011;32722;43.486;2.766;2022-10-31T12:37:03;24.55;;;7.38;;
46971;SDS011;32722;43.486;2.766;2022-10-31T12:44:55;20.98;;;7.32;;
46971;SDS011;32722;43.486;2.766;2022-10-31T12:55:32;22.90;;;9.27;;
46971;SDS011;32722;43.486;2.766;2022-10-31T12:58:03;21.90;;;7.47;;
46971;SDS011;32722;43.486;2.766;2022-10-31T13:00:31;16.98;;;7.18;;
46971;SDS011;32722;43.486;2.766;2022-10-31T13:03:00;20.50;;;7.03;;
46971;SDS011;32722;43.486;2.766;2022-10-31T13:05:34;20.58;;;7.30;;
46971;SDS011;32722;43.486;2.766;2022-10-31T13:08:16;19.35;;;7.05;;
46971;SDS011;32722;43.486;2.766;2022-10-31T13:10:48;16.88;;;6.70;;
46971;SDS011;32722;43.486;2.766;2022-10-31T13:15:55;21.83;;;8.05;;
46971;SDS011;32722;43.486;2.766;2022-10-31T13:18:27;21.75;;;6.85;;
46971;SDS011;32722;43.486;2.766;2022-10-31T13:20:53;24.20;;;7.38;;
46971;SDS011;32722;43.486;2.766;2022-10-31T13:23:22;24.48;;;7.00;;
46971;SDS011;32722;43.486;2.766;2022-10-31T13:25:54;24.90;;;7.47;;
46971;SDS011;32722;43.486;2.766;2022-10-31T13:30:52;24.40;;;7.38;;
46971;SDS011;32722;43.486;2.766;2022-10-31T13:38:51;19.80;;;7.28;;
46971;SDS011;32722;43.486;2.766;2022-10-31T13:46:23;20.77;;;7.38;;
46971;SDS011;32722;43.486;2.766;2022-10-31T13:48:50;21.00;;;6.90;;
46971;SDS011;32722;43.486;2.766;2022-10-31T13:51:23;14.63;;;6.97;;
46971;SDS011;32722;43.486;2.766;2022-10-31T13:58:58;19.63;;;8.07;;
46971;SDS011;32722;43.486;2.766;2022-10-31T14:01:25;21.80;;;7.85;;
46971;SDS011;32722;43.486;2.766;2022-10-31T14:06:23;21.23;;;7.43;;
46971;SDS011;32722;43.486;2.766;2022-10-31T14:09:00;23.42;;;7.10;;
46971;SDS011;32722;43.486;2.766;2022-10-31T14:11:28;21.58;;;7.63;;
46971;SDS011;32722;43.486;2.766;2022-10-31T14:13:55;22.63;;;8.50;;
46971;SDS011;32722;43.486;2.766;2022-10-31T14:16:31;20.10;;;7.95;;
46971;SDS011;32722;43.486;2.766;2022-10-31T14:18:59;22.83;;;7.70;;
46971;SDS011;32722;43.486;2.766;2022-10-31T14:23:53;14.52;;;7.03;;
46971;SDS011;32722;43.486;2.766;2022-10-31T14:26:29;21.63;;;7.20;;
46971;SDS011;32722;43.486;2.766;2022-10-31T14:28:59;19.80;;;7.55;;
46971;SDS011;32722;43.486;2.766;2022-10-31T14:33:58;24.03;;;8.50;;
46971;SDS011;32722;43.486;2.766;2022-10-31T14:36:36;20.45;;;8.50;;
46971;SDS011;32722;43.486;2.766;2022-10-31T14:44:46;23.35;;;8.90;;
46971;SDS011;32722;43.486;2.766;2022-10-31T14:46:56;27.88;;;9.57;;
46971;SDS011;32722;43.486;2.766;2022-10-31T14:49:36;19.80;;;7.88;;
46971;SDS011;32722;43.486;2.766;2022-10-31T14:52:07;18.50;;;8.20;;
46971;SDS011;32722;43.486;2.766;2022-10-31T14:54:40;23.52;;;8.50;;
46971;SDS011;32722;43.486;2.766;2022-10-31T14:57:13;19.27;;;7.78;;
46971;SDS011;32722;43.486;2.766;2022-10-31T14:59:43;19.63;;;7.80;;
46971;SDS011;32722;43.486;2.766;2022-10-31T15:02:27;24.27;;;8.23;;
46971;SDS011;32722;43.486;2.766;2022-10-31T15:04:55;23.65;;;8.20;;
46971;SDS011;32722;43.486;2.766;2022-10-31T15:07:23;23.83;;;8.95;;
46971;SDS011;32722;43.486;2.766;2022-10-31T15:09:57;23.58;;;9.60;;
46971;SDS011;32722;43.486;2.766;2022-10-31T15:12:28;18.58;;;8.43;;
46971;SDS011;32722;43.486;2.766;2022-10-31T15:14:54;26.58;;;8.35;;
46971;SDS011;32722;43.486;2.766;2022-10-31T15:17:22;25.30;;;9.70;;
46971;SDS011;32722;43.486;2.766;2022-10-31T15:19:49;26.02;;;9.27;;
46971;SDS011;32722;43.486;2.766;2022-10-31T15:22:16;20.52;;;8.57;;
46971;SDS011;32722;43.486;2.766;2022-10-31T15:24:43;19.63;;;8.30;;
46971;SDS011;32722;43.486;2.766;2022-10-31T15:27:13;22.70;;;8.65;;
46971;SDS011;32722;43.486;2.766;2022-10-31T15:29:49;28.77;;;9.65;;
46971;SDS011;32722;43.486;2.766;2022-10-31T15:32:23;28.00;;;9.32;;
46971;SDS011;32722;43.486;2.766;2022-10-31T15:34:49;22.63;;;8.43;;
46971;SDS011;32722;43.486;2.766;2022-10-31T15:37:17;25.38;;;9.55;;
46971;SDS011;32722;43.486;2.766;2022-10-31T15:39:44;27.95;;;9.02;;
46971;SDS011;32722;43.486;2.766;2022-10-31T15:44:43;29.20;;;9.25;;
46971;SDS011;32722;43.486;2.766;2022-10-31T15:47:17;22.02;;;8.63;;
46971;SDS011;32722;43.486;2.766;2022-10-31T15:49:48;24.42;;;9.02;;
46971;SDS011;32722;43.486;2.766;2022-10-31T15:52:27;26.27;;;9.55;;
46971;SDS011;32722;43.486;2.766;2022-10-31T15:54:58;25.85;;;9.90;;
46971;SDS011;32722;43.486;2.766;2022-10-31T15:57:26;20.33;;;9.38;;
46971;SDS011;32722;43.486;2.766;2022-10-31T15:59:52;21.20;;;9.38;;
46971;SDS011;32722;43.486;2.766;2022-10-31T16:02:20;24.42;;;9.52;;
46971;SDS011;32722;43.486;2.766;2022-10-31T16:04:48;23.52;;;9.32;;
46971;SDS011;32722;43.486;2.766;2022-10-31T16:07:15;26.40;;;9.25;;
46971;SDS011;32722;43.486;2.766;2022-10-31T16:09:49;22.58;;;9.70;;
46971;SDS011;32722;43.486;2.766;2022-10-31T16:12:15;21.40;;;9.25;;
46971;SDS011;32722;43.486;2.766;2022-10-31T16:14:41;23.10;;;9.77;;
46971;SDS011;32722;43.486;2.766;2022-10-31T16:17:17;28.88;;;10.05;;
46971;SDS011;32722;43.486;2.766;2022-10-31T16:19:47;23.85;;;9.82;;
46971;SDS011;32722;43.486;2.766;2022-10-31T16:22:18;24.48;;;9.70;;
46971;SDS011;32722;43.486;2.766;2022-10-31T16:27:28;28.58;;;9.88;;
46971;SDS011;32722;43.486;2.766;2022-10-31T16:29:57;24.00;;;8.82;;
46971;SDS011;32722;43.486;2.766;2022-10-31T16:37:36;20.45;;;9.73;;
46971;SDS011;32722;43.486;2.766;2022-10-31T16:40:03;24.60;;;10.48;;
46971;SDS011;32722;43.486;2.766;2022-10-31T16:42:29;29.58;;;10.00;;
46971;SDS011;32722;43.486;2.766;2022-10-31T16:44:55;27.73;;;9.65;;
46971;SDS011;32722;43.486;2.766;2022-10-31T16:47:22;25.35;;;9.45;;
46971;SDS011;32722;43.486;2.766;2022-10-31T16:49:48;22.95;;;9.93;;
46971;SDS011;32722;43.486;2.766;2022-10-31T16:52:15;21.80;;;9.35;;
46971;SDS011;32722;43.486;2.766;2022-10-31T16:54:42;24.40;;;10.00;;
46971;SDS011;32722;43.486;2.766;2022-10-31T16:57:11;27.60;;;10.18;;
46971;SDS011;32722;43.486;2.766;2022-10-31T16:59:39;26.75;;;9.77;;
46971;SDS011;32722;43.486;2.766;2022-10-31T17:02:06;23.38;;;10.07;;
46971;SDS011;32722;43.486;2.766;2022-10-31T17:04:35;27.55;;;10.73;;
46971;SDS011;32722;43.486;2.766;2022-10-31T17:07:02;26.00;;;9.32;;
46971;SDS011;32722;43.486;2.766;2022-10-31T17:09:28;24.75;;;9.45;;
46971;SDS011;32722;43.486;2.766;2022-10-31T17:11:54;22.40;;;11.20;;